Time;durP1;ratioP1;P1;durP2;ratioP2;P2;SDS_P1;SDS_P2;PMS_P1;PMS_P2;Temp;Humidity;BMP_temperature;BMP_pressure;BME280_temperature;BME280_humidity;BME280_pressure;Samples;Min_cycle;Max_cycle;Signal;HPM_P1;HPM_P2
2023/01/15 00:02:04;;;;;;;1.00;0.77;;;8.90;99.90;;;;;;5057781;28;20174;-37
2023/01/15 00:04:30;;;;;;;4.33;1.00;;;8.90;99.90;;;;;;5056147;28;20724;-37
2023/01/15 00:06:56;;;;;;;4.20;1.00;;;8.90;99.90;;;;;;5056859;28;20459;-38
2023/01/15 00:09:22;;;;;;;1.43;0.90;;;8.90;99.90;;;;;;5055897;28;20178;-38
2023/01/15 00:11:48;;;;;;;1.30;0.83;;;8.90;99.90;;;;;;5054187;28;20178;-38
2023/01/15 00:14:14;;;;;;;1.10;0.90;;;8.90;99.90;;;;;;5057184;28;20184;-38
2023/01/15 00:16:40;;;;;;;1.00;0.80;;;8.90;99.90;;;;;;5057078;28;20750;-39
2023/01/15 00:19:09;;;;;;;1.30;0.70;;;8.90;99.90;;;;;;5057345;28;20201;-38
2023/01/15 00:21:35;;;;;;;1.30;0.90;;;9.00;99.90;;;;;;5056131;28;20178;-41
2023/01/15 00:29:32;;;;;;;1.30;0.70;;;9.20;99.90;;;;;;5058905;28;20431;-37
2023/01/15 00:32:00;;;;;;;1.63;0.80;;;9.30;99.90;;;;;;5058910;28;20416;-39
2023/01/15 00:34:26;;;;;;;1.27;0.60;;;9.40;99.90;;;;;;5056744;28;20426;-38
2023/01/15 00:36:52;;;;;;;1.10;0.60;;;9.40;99.90;;;;;;5057426;28;20468;-39
2023/01/15 00:39:18;;;;;;;1.00;0.60;;;9.30;99.90;;;;;;5072953;28;20231;-38
2023/01/15 00:41:43;;;;;;;1.83;0.67;;;9.30;99.90;;;;;;5058310;28;20829;-38
2023/01/15 00:44:09;;;;;;;1.23;0.73;;;9.30;99.90;;;;;;5057346;28;20538;-39
2023/01/15 00:46:36;;;;;;;1.60;0.80;;;9.20;99.90;;;;;;5059211;28;20259;-38
2023/01/15 00:49:02;;;;;;;2.00;0.70;;;9.30;99.90;;;;;;5055195;28;20444;-38
2023/01/15 00:51:28;;;;;;;1.27;0.60;;;9.20;99.90;;;;;;5038749;28;20661;-37
2023/01/15 00:53:54;;;;;;;1.90;0.70;;;9.20;99.90;;;;;;5038226;28;20436;-38
2023/01/15 00:56:19;;;;;;;1.07;0.77;;;9.20;99.90;;;;;;5038651;28;20206;-39
2023/01/15 00:58:46;;;;;;;1.90;1.00;;;9.30;99.90;;;;;;5038271;28;20175;-38
2023/01/15 01:01:12;;;;;;;1.10;0.70;;;9.30;99.90;;;;;;5039790;28;20178;-38
2023/01/15 01:03:38;;;;;;;1.50;0.90;;;9.20;99.90;;;;;;5041217;28;20429;-39
2023/01/15 01:06:04;;;;;;;1.20;0.77;;;9.30;99.90;;;;;;5059153;28;20743;-39
2023/01/15 01:08:30;;;;;;;1.10;0.40;;;9.30;99.90;;;;;;5058773;28;20178;-38
2023/01/15 01:11:08;;;;;;;1.67;0.80;;;9.30;99.90;;;;;;5037741;28;20435;-38
2023/01/15 01:13:35;;;;;;;2.30;1.13;;;9.30;99.90;;;;;;5036903;28;20444;-39
2023/01/15 01:16:01;;;;;;;1.60;0.90;;;9.30;99.90;;;;;;5037832;28;20895;-39
2023/01/15 01:18:27;;;;;;;1.10;0.60;;;9.30;99.90;;;;;;5046104;28;20480;-38
2023/01/15 01:20:52;;;;;;;2.40;0.60;;;9.30;99.90;;;;;;5058292;28;20419;-39
2023/01/15 01:23:18;;;;;;;1.37;0.60;;;9.30;99.90;;;;;;5059659;28;20200;-39
2023/01/15 01:25:44;;;;;;;1.23;0.90;;;9.40;99.90;;;;;;5058058;28;20188;-38
2023/01/15 01:28:09;;;;;;;1.33;0.60;;;9.40;63.10;;;;;;5054105;28;20173;-39
2023/01/15 01:30:37;;;;;;;0.90;0.50;;;9.40;34.20;;;;;;5054799;28;20189;-38
2023/01/15 01:33:03;;;;;;;1.40;0.50;;;9.40;67.90;;;;;;5055862;28;20185;-38
2023/01/15 01:35:28;;;;;;;2.20;0.70;;;9.40;99.90;;;;;;5055521;28;20421;-38
2023/01/15 01:37:54;;;;;;;0.80;0.50;;;9.50;99.90;;;;;;5056833;28;20177;-39
2023/01/15 01:40:20;;;;;;;1.40;0.60;;;9.40;99.90;;;;;;5056855;28;20236;-40
2023/01/15 01:42:45;;;;;;;1.27;0.63;;;9.50;99.90;;;;;;5056999;28;20177;-40
2023/01/15 01:45:31;;;;;;;1.17;0.43;;;9.50;99.90;;;;;;5056019;28;20178;-38
2023/01/15 01:48:02;;;;;;;1.10;0.63;;;9.50;99.90;;;;;;5054748;28;20584;-38
2023/01/15 01:50:29;;;;;;;0.87;0.60;;;9.60;98.00;;;;;;5051588;28;20408;-38
2023/01/15 01:52:59;;;;;;;1.00;0.60;;;9.60;99.90;;;;;;5052059;28;20467;-38
2023/01/15 01:55:26;;;;;;;1.30;0.70;;;9.50;99.90;;;;;;5053554;28;20844;-39
2023/01/15 01:57:53;;;;;;;2.10;0.93;;;9.50;99.90;;;;;;5053003;28;20475;-39
2023/01/15 02:00:19;;;;;;;1.13;0.63;;;9.60;99.90;;;;;;5052669;28;20557;-39
2023/01/15 02:02:46;;;;;;;0.80;0.60;;;9.60;99.90;;;;;;5054337;28;20751;-38
2023/01/15 02:05:28;;;;;;;0.80;0.40;;;9.70;99.90;;;;;;5053274;28;20526;-40
2023/01/15 02:07:54;;;;;;;1.17;0.60;;;9.70;99.90;;;;;;5051646;28;20436;-37
2023/01/15 02:10:20;;;;;;;0.80;0.40;;;9.60;99.90;;;;;;5051520;28;20523;-38
2023/01/15 02:13:04;;;;;;;0.80;0.40;;;9.60;99.90;;;;;;5052526;28;20758;-40
2023/01/15 02:15:47;;;;;;;1.10;0.60;;;9.60;99.90;;;;;;5053421;28;20177;-38
2023/01/15 02:18:39;;;;;;;0.93;0.40;;;9.60;99.90;;;;;;5055821;28;20487;-37
2023/01/15 02:21:28;;;;;;;1.40;0.43;;;9.60;99.90;;;;;;5047089;28;20743;-38
2023/01/15 02:24:13;;;;;;;1.73;0.80;;;9.70;99.90;;;;;;5056170;28;20424;-38
2023/01/15 02:27:05;;;;;;;0.90;0.50;;;9.70;99.90;;;;;;5057062;28;20827;-38
2023/01/15 02:29:37;;;;;;;1.40;0.47;;;9.70;99.90;;;;;;5060727;28;20459;-38
2023/01/15 02:32:09;;;;;;;1.00;0.40;;;9.70;99.90;;;;;;5060826;28;20515;-38
2023/01/15 02:34:42;;;;;;;0.80;0.50;;;9.70;99.90;;;;;;5059088;28;20857;-38
2023/01/15 02:37:12;;;;;;;0.70;0.40;;;9.70;99.90;;;;;;5059820;28;20494;-38
2023/01/15 02:39:40;;;;;;;0.90;0.40;;;9.70;99.90;;;;;;5060861;28;20428;-38
2023/01/15 02:42:08;;;;;;;1.53;0.60;;;9.70;99.90;;;;;;5059430;28;20416;-39
2023/01/15 02:44:36;;;;;;;0.90;0.50;;;9.80;99.90;;;;;;5058590;28;20542;-38
2023/01/15 02:47:03;;;;;;;1.63;0.60;;;9.80;99.90;;;;;;5056998;28;20427;-38
2023/01/15 02:49:31;;;;;;;0.70;0.30;;;9.80;99.90;;;;;;5057850;28;20905;-38
2023/01/15 02:52:01;;;;;;;0.70;0.30;;;9.80;99.90;;;;;;5059184;28;20420;-38
2023/01/15 02:54:30;;;;;;;0.80;0.47;;;9.80;99.90;;;;;;5059781;28;20436;-38
2023/01/15 02:56:58;;;;;;;0.90;0.50;;;9.80;99.90;;;;;;5041091;28;20480;-38
2023/01/15 02:59:28;;;;;;;3.77;0.60;;;9.90;99.90;;;;;;5060545;28;20540;-38
2023/01/15 03:01:58;;;;;;;1.23;0.40;;;10.00;95.30;;;;;;5056227;28;20419;-38
2023/01/15 03:04:32;;;;;;;0.80;0.40;;;10.10;40.20;;;;;;5058993;28;20535;-39
2023/01/15 03:07:20;;;;;;;0.70;0.37;;;10.10;94.80;;;;;;5059359;28;20455;-38
2023/01/15 03:09:47;;;;;;;1.10;0.40;;;10.20;1.00;;;;;;5057201;28;20452;-38
2023/01/15 03:12:18;;;;;;;1.67;0.40;;;10.40;1.00;;;;;;5055187;28;20696;-39
2023/01/15 03:15:06;;;;;;;0.77;0.30;;;10.50;1.00;;;;;;5057279;28;20450;-38
2023/01/15 03:17:53;;;;;;;1.10;0.40;;;10.60;1.00;;;;;;5058650;28;20476;-39
2023/01/15 03:20:28;;;;;;;0.70;0.30;;;10.70;99.90;;;;;;5059289;28;20486;-39
2023/01/15 03:23:02;;;;;;;0.80;0.37;;;10.80;99.90;;;;;;5059592;28;20530;-37
2023/01/15 03:25:41;;;;;;;0.80;0.40;;;10.80;99.90;;;;;;5059167;28;20419;-39
2023/01/15 03:28:07;;;;;;;1.10;0.40;;;10.80;99.90;;;;;;5059333;28;20424;-38
2023/01/15 03:30:33;;;;;;;1.33;0.30;;;10.80;99.90;;;;;;5059689;28;20716;-38
2023/01/15 03:32:58;;;;;;;0.77;0.30;;;10.80;99.90;;;;;;5059410;28;20424;-42
2023/01/15 03:35:49;;;;;;;0.70;0.30;;;10.90;1.00;;;;;;5058661;28;20627;-39
2023/01/15 03:38:18;;;;;;;0.80;0.40;;;10.90;95.00;;;;;;5058090;28;20607;-38
2023/01/15 03:40:54;;;;;;;0.70;0.27;;;10.90;99.90;;;;;;5059024;28;20420;-39
2023/01/15 03:43:42;;;;;;;1.00;0.40;;;11.00;1.00;;;;;;5056751;28;20419;-45
2023/01/15 03:46:14;;;;;;;0.80;0.37;;;11.00;1.00;;;;;;5057145;28;20416;-40
2023/01/15 03:48:52;;;;;;;1.20;0.37;;;11.00;1.00;;;;;;5058017;28;20428;-39
2023/01/15 03:51:51;;;;;;;1.00;0.40;;;11.00;1.00;;;;;;5057823;28;20470;-38
2023/01/15 03:54:49;;;;;;;0.97;0.47;;;11.00;1.00;;;;;;5056788;28;20718;-40
2023/01/15 03:57:36;;;;;;;0.77;0.30;;;11.00;1.00;;;;;;5056633;28;20471;-37
2023/01/15 04:00:32;;;;;;;0.93;0.40;;;11.00;1.00;;;;;;5057530;28;20448;-38
2023/01/15 04:02:59;;;;;;;1.13;0.53;;;11.00;1.00;;;;;;5057141;28;20769;-38
2023/01/15 04:05:25;;;;;;;0.80;0.30;;;11.00;1.00;;;;;;5057721;28;20702;-42
2023/01/15 04:07:52;;;;;;;0.90;0.40;;;11.00;1.00;;;;;;5057578;28;20420;-38
2023/01/15 04:10:18;;;;;;;0.77;0.37;;;11.10;99.90;;;;;;5058054;28;20486;-39
2023/01/15 04:12:43;;;;;;;0.70;0.30;;;11.10;99.90;;;;;;5057121;28;20746;-38
2023/01/15 04:15:11;;;;;;;0.70;0.30;;;11.10;99.90;;;;;;5058307;28;20573;-40
2023/01/15 04:17:36;;;;;;;0.70;0.27;;;11.10;99.90;;;;;;5058287;28;20510;-38
2023/01/15 04:20:02;;;;;;;1.57;0.40;;;11.10;99.90;;;;;;5058501;28;20448;-38
2023/01/15 04:22:29;;;;;;;0.80;0.40;;;11.10;99.90;;;;;;5058347;28;20573;-38
2023/01/15 04:24:55;;;;;;;0.80;0.30;;;11.10;99.90;;;;;;5057599;28;20428;-39
2023/01/15 04:27:21;;;;;;;0.70;0.20;;;11.10;99.90;;;;;;5058206;28;20519;-42
2023/01/15 04:29:47;;;;;;;1.10;0.40;;;11.10;99.90;;;;;;5058316;28;20419;-39
2023/01/15 04:32:12;;;;;;;1.33;0.40;;;11.10;99.90;;;;;;5057263;28;20259;-38
2023/01/15 04:34:38;;;;;;;0.93;0.40;;;11.10;1.00;;;;;;5058842;28;20428;-39
2023/01/15 04:37:04;;;;;;;0.97;0.30;;;11.00;1.00;;;;;;5058423;28;20297;-39
2023/01/15 04:39:29;;;;;;;0.70;0.30;;;11.00;1.00;;;;;;5057782;28;20497;-39
2023/01/15 04:44:39;;;;;;;0.80;0.30;;;11.00;1.00;;;;;;5056305;28;20188;-38
2023/01/15 04:47:05;;;;;;;1.57;0.40;;;11.00;1.00;;;;;;5055949;28;20433;-39
2023/01/15 04:49:31;;;;;;;0.70;0.30;;;11.00;1.00;;;;;;5054502;28;20261;-39
2023/01/15 04:51:56;;;;;;;0.90;0.40;;;11.00;1.00;;;;;;5054323;28;20681;-38
2023/01/15 04:54:22;;;;;;;0.70;0.30;;;11.00;1.00;;;;;;5054732;28;20188;-38
2023/01/15 04:56:50;;;;;;;1.83;0.40;;;10.90;1.00;;;;;;5055062;28;20268;-38
2023/01/15 04:59:19;;;;;;;0.70;0.30;;;11.00;1.00;;;;;;5055486;28;20186;-41
2023/01/15 05:01:44;;;;;;;0.70;0.30;;;11.00;1.00;;;;;;5055077;28;20482;-40
2023/01/15 05:04:10;;;;;;;0.70;0.30;;;11.00;1.00;;;;;;5053447;28;20436;-39
2023/01/15 05:06:36;;;;;;;1.83;0.50;;;11.00;1.00;;;;;;5054876;28;20183;-39
2023/01/15 05:09:02;;;;;;;0.80;0.30;;;11.00;1.00;;;;;;5056676;28;20193;-39
2023/01/15 05:11:28;;;;;;;0.80;0.40;;;11.00;1.00;;;;;;5055787;28;20212;-38
2023/01/15 05:13:54;;;;;;;1.03;0.43;;;11.00;1.00;;;;;;5057422;28;20435;-39
2023/01/15 05:16:25;;;;;;;2.30;0.50;;;11.00;1.00;;;;;;5057005;28;20468;-38
2023/01/15 05:18:52;;;;;;;0.90;0.40;;;11.00;1.00;;;;;;5057225;28;20760;-39
2023/01/15 05:21:21;;;;;;;0.60;0.20;;;11.00;1.00;;;;;;5057369;28;20523;-40
2023/01/15 05:23:47;;;;;;;0.90;0.30;;;11.00;1.00;;;;;;5056891;28;20420;-38
2023/01/15 05:26:13;;;;;;;0.97;0.50;;;11.00;1.00;;;;;;5056289;28;20423;-40
2023/01/15 05:28:39;;;;;;;0.83;0.50;;;10.90;1.00;;;;;;5056729;28;20428;-38
2023/01/15 05:31:10;;;;;;;0.70;0.30;;;10.90;1.00;;;;;;5056911;28;20685;-40
2023/01/15 05:33:36;;;;;;;1.20;0.57;;;10.90;1.00;;;;;;5057641;28;20612;-39
2023/01/15 05:36:07;;;;;;;0.70;0.40;;;10.80;99.90;;;;;;5056876;28;20757;-39
2023/01/15 05:38:33;;;;;;;0.80;0.40;;;10.60;1.00;;;;;;5056939;28;20419;-39
2023/01/15 05:41:03;;;;;;;1.00;0.50;;;10.40;1.00;;;;;;5057682;28;20503;-39
2023/01/15 05:43:28;;;;;;;0.80;0.30;;;10.10;1.00;;;;;;5057665;28;20489;-38
2023/01/15 05:45:54;;;;;;;0.60;0.30;;;9.70;1.00;;;;;;5057642;28;20407;-38
2023/01/15 05:48:20;;;;;;;0.70;0.30;;;9.30;1.00;;;;;;5057721;28;20178;-38
2023/01/15 05:50:45;;;;;;;0.60;0.20;;;9.00;10.80;;;;;;5057855;28;20196;-38
2023/01/15 05:53:11;;;;;;;1.47;0.20;;;8.80;99.90;;;;;;5057052;28;20477;-38
2023/01/15 05:55:36;;;;;;;0.70;0.20;;;8.60;99.90;;;;;;5056986;28;20215;-37
2023/01/15 05:58:02;;;;;;;0.70;0.30;;;8.30;99.90;;;;;;5056013;28;20272;-37
2023/01/15 06:00:28;;;;;;;0.70;0.30;;;8.20;99.90;;;;;;5057118;28;20280;-38
2023/01/15 06:02:53;;;;;;;0.70;0.27;;;8.00;99.90;;;;;;5055789;28;20209;-38
2023/01/15 06:05:19;;;;;;;0.70;0.30;;;7.80;99.90;;;;;;5057309;28;20205;-38
2023/01/15 06:07:49;;;;;;;0.60;0.30;;;7.80;99.90;;;;;;5057167;28;20248;-38
2023/01/15 06:10:16;;;;;;;0.80;0.40;;;7.70;99.90;;;;;;5057139;28;20438;-39
2023/01/15 06:12:42;;;;;;;0.60;0.30;;;7.70;99.90;;;;;;5056661;28;20709;-38
2023/01/15 06:15:08;;;;;;;0.60;0.30;;;7.60;99.90;;;;;;5056713;28;20558;-38
2023/01/15 06:17:34;;;;;;;0.80;0.30;;;7.60;99.90;;;;;;5056599;28;20487;-38
2023/01/15 06:20:07;;;;;;;0.60;0.27;;;7.60;99.90;;;;;;5057343;28;20515;-38
2023/01/15 06:22:33;;;;;;;0.70;0.30;;;7.60;99.90;;;;;;5056991;28;20452;-38
2023/01/15 06:24:58;;;;;;;0.77;0.30;;;7.50;99.90;;;;;;5056819;28;20456;-38
2023/01/15 06:27:24;;;;;;;1.10;0.50;;;7.50;99.90;;;;;;5056870;28;20189;-37
2023/01/15 06:29:49;;;;;;;0.70;0.40;;;7.40;99.90;;;;;;5055947;28;20186;-38
2023/01/15 06:32:15;;;;;;;0.77;0.40;;;7.40;99.90;;;;;;5056105;28;20473;-37
2023/01/15 06:34:43;;;;;;;1.50;0.60;;;7.40;99.90;;;;;;5054781;28;20181;-40
2023/01/15 06:37:08;;;;;;;0.73;0.40;;;7.30;99.90;;;;;;5054885;28;20323;-37
2023/01/15 06:39:34;;;;;;;1.60;0.70;;;7.30;99.90;;;;;;5055469;28;20562;-38
2023/01/15 06:47:28;;;;;;;1.53;0.50;;;7.20;99.90;;;;;;5054779;28;20438;-39
2023/01/15 06:49:56;;;;;;;0.80;0.20;;;7.10;99.90;;;;;;5055534;28;20863;-38
2023/01/15 06:52:26;;;;;;;0.70;0.23;;;7.10;99.90;;;;;;5055190;28;20201;-41
2023/01/15 06:54:52;;;;;;;0.70;0.20;;;7.00;99.90;;;;;;5054453;28;20435;-38
2023/01/15 06:57:18;;;;;;;0.80;0.33;;;6.90;99.90;;;;;;5053058;28;20475;-38
2023/01/15 06:59:43;;;;;;;0.90;0.40;;;6.90;99.90;;;;;;5049916;28;20427;-38
2023/01/15 07:02:10;;;;;;;0.73;0.30;;;6.80;99.90;;;;;;5051971;28;20608;-37
2023/01/15 07:04:36;;;;;;;0.60;0.30;;;6.70;99.90;;;;;;5053732;28;20289;-38
2023/01/15 07:07:02;;;;;;;0.80;0.40;;;6.70;99.90;;;;;;5054004;28;20427;-39
2023/01/15 07:09:27;;;;;;;0.80;0.40;;;6.60;99.90;;;;;;5052708;28;20178;-38
2023/01/15 07:11:53;;;;;;;0.80;0.30;;;6.60;99.90;;;;;;5053985;28;20185;-38
2023/01/15 07:14:21;;;;;;;0.70;0.30;;;6.60;99.90;;;;;;5057855;28;20569;-37
2023/01/15 07:16:48;;;;;;;0.80;0.47;;;6.60;99.90;;;;;;5058439;28;20236;-38
2023/01/15 07:19:14;;;;;;;0.80;0.50;;;6.50;99.90;;;;;;5059417;28;20431;-38
2023/01/15 07:21:40;;;;;;;0.77;0.40;;;6.50;99.90;;;;;;5059649;28;20416;-39
2023/01/15 07:24:06;;;;;;;1.03;0.40;;;6.50;99.90;;;;;;5059926;28;20423;-38
2023/01/15 07:26:32;;;;;;;0.70;0.30;;;6.40;99.90;;;;;;5058743;28;20450;-37
2023/01/15 07:28:58;;;;;;;0.70;0.40;;;6.40;99.90;;;;;;5058321;28;20439;-37
2023/01/15 07:31:23;;;;;;;0.80;0.40;;;6.30;99.90;;;;;;5057953;28;20194;-38
2023/01/15 07:33:49;;;;;;;1.47;0.40;;;6.30;99.90;;;;;;5057902;28;20200;-43
2023/01/15 07:36:14;;;;;;;0.70;0.30;;;6.20;99.90;;;;;;5057867;28;20209;-38
2023/01/15 07:38:40;;;;;;;0.70;0.40;;;6.20;99.90;;;;;;5058194;28;20185;-38
2023/01/15 07:52:02;;;;;;;1.00;0.57;;;6.10;90.20;;;;;;5059412;28;20478;-37
2023/01/15 07:54:28;;;;;;;1.60;0.50;;;6.10;98.50;;;;;;5058919;28;20436;-38
2023/01/15 07:56:54;;;;;;;0.83;0.40;;;6.00;99.90;;;;;;5059148;28;20214;-37
2023/01/15 07:59:20;;;;;;;1.10;0.50;;;6.00;99.90;;;;;;5057268;28;20178;-38
2023/01/15 08:01:46;;;;;;;1.30;0.53;;;6.00;99.90;;;;;;5059240;28;20427;-37
2023/01/15 08:04:11;;;;;;;1.30;0.73;;;6.00;99.90;;;;;;5059581;28;20538;-38
2023/01/15 08:06:37;;;;;;;0.90;0.60;;;6.00;98.10;;;;;;5059130;28;20277;-38
2023/01/15 08:09:04;;;;;;;1.30;0.70;;;5.90;59.40;;;;;;5059160;28;20268;-38
2023/01/15 08:17:00;;;;;;;1.17;0.40;;;5.90;45.60;;;;;;5058493;28;20486;-38
2023/01/15 08:19:28;;;;;;;6.40;4.50;;;5.90;46.80;;;;;;5059086;28;20424;-37
2023/01/15 08:21:54;;;;;;;3.80;3.50;;;5.90;84.00;;;;;;5058232;28;20174;-37
2023/01/15 08:24:20;;;;;;;1.87;1.43;;;5.90;99.90;;;;;;5057233;28;20428;-37
2023/01/15 08:26:46;;;;;;;1.53;0.93;;;5.90;99.90;;;;;;5057405;28;20436;-38
2023/01/15 08:29:11;;;;;;;1.30;1.20;;;5.90;99.90;;;;;;5057777;28;20281;-38
2023/01/15 08:31:39;;;;;;;3.83;3.53;;;5.90;99.90;;;;;;5056223;28;20193;-38
2023/01/15 08:34:04;;;;;;;1.10;1.00;;;5.90;99.90;;;;;;5055560;28;20193;-38
2023/01/15 08:36:30;;;;;;;1.50;1.40;;;5.80;1.00;;;;;;5056660;28;20463;-37
2023/01/15 08:38:56;;;;;;;1.20;0.90;;;5.70;99.90;;;;;;5055958;28;20332;-37
2023/01/15 08:41:21;;;;;;;1.50;0.97;;;5.80;99.90;;;;;;5055362;28;20177;-37
2023/01/15 08:43:49;;;;;;;2.17;1.77;;;5.70;99.90;;;;;;5056472;28;20178;-37
2023/01/15 08:46:15;;;;;;;1.77;1.20;;;5.80;99.90;;;;;;5055712;28;20439;-37
2023/01/15 08:48:41;;;;;;;1.70;1.03;;;5.80;99.90;;;;;;5057213;28;20412;-38
2023/01/15 08:51:08;;;;;;;4.93;2.90;;;5.70;99.90;;;;;;5057768;28;20454;-37
2023/01/15 08:53:34;;;;;;;2.20;1.40;;;5.70;99.90;;;;;;5057333;28;20325;-37
2023/01/15 08:56:00;;;;;;;0.77;0.40;;;5.70;99.90;;;;;;5058997;28;20681;-37
2023/01/15 08:58:30;;;;;;;1.27;0.93;;;5.60;99.90;;;;;;5050069;28;20543;-37
2023/01/15 09:01:04;;;;;;;1.10;0.73;;;5.70;99.90;;;;;;5036226;28;20217;-37
2023/01/15 09:03:29;;;;;;;1.77;1.20;;;5.70;99.90;;;;;;5037053;28;20612;-38
2023/01/15 09:05:58;;;;;;;1.30;1.00;;;5.70;99.90;;;;;;5035323;28;20421;-37
2023/01/15 09:08:24;;;;;;;1.43;0.47;;;5.70;99.90;;;;;;5035369;28;20174;-37
2023/01/15 09:10:55;;;;;;;1.50;1.00;;;5.50;64.30;;;;;;5034643;28;20429;-37
2023/01/15 09:13:21;;;;;;;2.43;1.53;;;5.60;98.70;;;;;;5035617;28;20425;-37
2023/01/15 09:15:46;;;;;;;2.00;1.50;;;5.50;99.90;;;;;;5035785;28;20780;-37
2023/01/15 09:18:14;;;;;;;2.80;1.13;;;5.50;99.90;;;;;;5035222;28;20319;-37
2023/01/15 09:20:39;;;;;;;2.33;1.27;;;5.50;46.80;;;;;;5034602;28;20281;-38
2023/01/15 09:23:05;;;;;;;2.70;1.70;;;5.50;3.90;;;;;;5034550;28;20508;-38
2023/01/15 09:25:30;;;;;;;2.30;1.10;;;5.50;78.20;;;;;;5035458;28;20170;-38
2023/01/15 09:27:56;;;;;;;2.20;1.80;;;5.50;99.90;;;;;;5035360;28;20237;-37
2023/01/15 09:30:22;;;;;;;1.63;1.07;;;5.50;93.10;;;;;;5034831;28;20178;-38
2023/01/15 09:32:48;;;;;;;3.73;3.40;;;5.50;14.50;;;;;;5035084;28;20440;-38
2023/01/15 09:35:14;;;;;;;3.77;3.40;;;5.40;60.00;;;;;;5032859;28;20289;-38
2023/01/15 09:37:39;;;;;;;3.10;2.30;;;5.40;83.90;;;;;;5032322;28;20567;-38
2023/01/15 09:40:08;;;;;;;2.00;1.80;;;5.40;1.00;;;;;;5035221;28;20424;-37
2023/01/15 09:42:48;;;;;;;0.70;0.37;;;5.40;1.00;;;;;;5034074;28;20202;-38
2023/01/15 09:45:27;;;;;;;0.80;0.47;;;5.30;1.00;;;;;;5034685;28;20806;-37
2023/01/15 09:48:05;;;;;;;1.10;0.50;;;5.30;1.00;;;;;;5033714;28;20431;-37
2023/01/15 09:51:06;;;;;;;1.03;0.43;;;5.30;1.00;;;;;;5033995;28;20416;-37
2023/01/15 09:53:47;;;;;;;1.03;0.63;;;5.30;17.70;;;;;;5017920;28;20429;-37
2023/01/15 09:56:22;;;;;;;2.03;1.73;;;5.30;93.00;;;;;;5035806;28;20452;-37
2023/01/15 09:58:48;;;;;;;2.43;1.10;;;5.30;99.90;;;;;;5035647;28;20412;-37
2023/01/15 10:01:23;;;;;;;2.93;2.13;;;5.20;99.90;;;;;;5035756;28;20500;-38
2023/01/15 10:03:53;;;;;;;2.20;1.00;;;5.30;99.90;;;;;;5035624;28;20440;-37
2023/01/15 10:06:23;;;;;;;1.63;1.37;;;5.30;99.90;;;;;;5036056;28;20486;-37
2023/01/15 10:08:50;;;;;;;1.73;1.07;;;5.30;99.90;;;;;;5035551;28;20476;-37
2023/01/15 10:11:18;;;;;;;3.10;2.10;;;5.20;99.90;;;;;;5035529;28;20431;-36
2023/01/15 10:13:44;;;;;;;1.60;1.13;;;5.20;99.90;;;;;;5034313;28;20786;-38
2023/01/15 10:16:13;;;;;;;1.60;1.37;;;5.20;99.90;;;;;;5034167;28;20461;-38
2023/01/15 10:18:42;;;;;;;1.80;1.60;;;5.20;99.90;;;;;;5034924;28;20469;-37
2023/01/15 10:21:23;;;;;;;2.03;1.20;;;5.20;99.90;;;;;;5036988;28;20772;-38
2023/01/15 10:24:04;;;;;;;1.60;1.33;;;5.20;99.90;;;;;;5036616;28;20829;-38
2023/01/15 10:26:39;;;;;;;1.97;1.40;;;5.30;99.90;;;;;;5036232;28;20833;-39
2023/01/15 10:29:14;;;;;;;1.70;1.10;;;5.30;99.90;;;;;;5034074;28;20425;-37
2023/01/15 10:32:05;;;;;;;1.73;1.50;;;5.30;99.90;;;;;;5031790;28;20429;-37
2023/01/15 10:35:07;;;;;;;1.27;0.70;;;5.40;99.90;;;;;;5032742;28;20429;-37
2023/01/15 10:38:14;;;;;;;1.70;1.30;;;5.40;99.90;;;;;;5035287;28;20464;-38
2023/01/15 10:41:07;;;;;;;1.20;0.70;;;5.30;99.90;;;;;;5000087;28;20435;-38
2023/01/15 10:43:38;;;;;;;0.90;0.60;;;5.30;28.70;;;;;;5032539;28;20505;-38
2023/01/15 10:46:32;;;;;;;2.30;1.77;;;5.30;1.00;;;;;;5032148;28;20817;-38
2023/01/15 10:49:15;;;;;;;1.93;1.60;;;5.10;1.00;;;;;;5034374;28;20444;-39
2023/01/15 10:51:45;;;;;;;1.43;1.30;;;5.10;17.50;;;;;;5035037;28;20479;-38
2023/01/15 10:54:23;;;;;;;1.10;0.70;;;5.00;81.40;;;;;;5034199;28;20436;-38
2023/01/15 10:57:10;;;;;;;1.40;0.80;;;5.00;1.00;;;;;;5034092;28;20554;-38
2023/01/15 10:59:49;;;;;;;1.13;0.57;;;4.90;1.00;;;;;;5036930;28;20416;-40
2023/01/15 11:02:42;;;;;;;1.00;0.47;;;4.80;12.40;;;;;;5038515;28;20511;-38
2023/01/15 11:05:19;;;;;;;0.90;0.60;;;4.70;1.00;;;;;;5020784;28;20439;-36
2023/01/15 11:07:47;;;;;;;1.20;0.70;;;4.60;99.90;;;;;;5039219;28;20524;-36
2023/01/15 11:10:16;;;;;;;2.83;1.80;;;4.60;99.90;;;;;;5040026;28;20427;-37
2023/01/15 11:21:26;;;;;;;1.50;1.17;;;4.60;35.60;;;;;;5037961;28;20479;-36
2023/01/15 11:23:54;;;;;;;1.20;1.10;;;4.50;1.00;;;;;;5020336;28;20582;-37
2023/01/15 11:26:28;;;;;;;0.70;0.40;;;4.40;1.00;;;;;;5036532;28;20777;-37
2023/01/15 11:28:55;;;;;;;2.00;0.70;;;4.40;1.00;;;;;;5037299;28;20733;-40
2023/01/15 11:31:21;;;;;;;1.10;0.53;;;4.20;1.00;;;;;;5021290;28;20523;-37
2023/01/15 11:34:05;;;;;;;1.30;0.60;;;4.10;1.00;;;;;;5020859;28;20532;-37
2023/01/15 11:36:32;;;;;;;1.13;0.60;;;3.90;7.50;;;;;;5036870;28;20241;-38
2023/01/15 11:38:58;;;;;;;2.40;2.20;;;4.50;1.00;;;;;;5021130;28;20459;-38
2023/01/15 11:52:57;;;;;;;0.90;0.57;;;6.00;1.00;;;;;;5036228;28;20417;-37
2023/01/15 11:55:25;;;;;;;0.73;0.43;;;5.70;99.90;;;;;;5036404;28;20476;-38
2023/01/15 11:57:52;;;;;;;0.93;0.77;;;5.40;99.90;;;;;;5035422;28;20464;-37
2023/01/15 12:00:27;;;;;;;1.00;0.33;;;4.90;1.00;;;;;;5038156;28;20494;-37
2023/01/15 12:03:20;;;;;;;0.87;0.50;;;4.50;1.00;;;;;;5038698;28;20498;-38
2023/01/15 12:05:54;;;;;;;1.20;0.60;;;4.40;99.90;;;;;;5051155;28;20429;-38
2023/01/15 12:08:50;;;;;;;1.43;0.80;;;4.00;99.90;;;;;;5036008;28;20427;-37
2023/01/15 12:11:40;;;;;;;1.27;0.63;;;3.80;1.00;;;;;;5037720;28;20752;-37
2023/01/15 12:14:23;;;;;;;1.10;0.63;;;3.80;1.00;;;;;;5036626;28;20484;-38
2023/01/15 12:17:18;;;;;;;1.57;0.90;;;3.70;1.00;;;;;;5036575;28;20799;-37
2023/01/15 12:20:14;;;;;;;3.17;0.80;;;3.60;1.00;;;;;;5035605;28;20413;-37
2023/01/15 12:23:06;;;;;;;0.80;0.60;;;3.60;1.00;;;;;;5038187;28;20420;-36
2023/01/15 12:26:16;;;;;;;1.13;0.70;;;3.50;1.00;;;;;;5037978;28;20422;-37
2023/01/15 12:29:01;;;;;;;1.73;0.70;;;3.50;1.00;;;;;;5036637;28;20445;-37
2023/01/15 12:31:37;;;;;;;2.70;0.60;;;3.50;26.60;;;;;;5035584;28;20495;-36
2023/01/15 12:34:03;;;;;;;2.23;0.77;;;3.60;4.60;;;;;;5037810;28;20669;-37
2023/01/15 12:36:44;;;;;;;1.03;0.60;;;3.60;59.30;;;;;;5036958;28;20476;-37
2023/01/15 12:39:15;;;;;;;1.57;0.70;;;3.60;1.00;;;;;;5017936;28;20412;-37
2023/01/15 12:47:28;;;;;;;1.00;0.67;;;3.80;1.00;;;;;;5036478;28;20924;-37
2023/01/15 12:50:26;;;;;;;2.50;0.80;;;3.80;1.00;;;;;;5036554;28;20495;-37
2023/01/15 12:53:25;;;;;;;1.20;0.80;;;3.80;1.00;;;;;;5030271;28;20457;-37
2023/01/15 12:56:14;;;;;;;1.50;0.70;;;3.80;1.00;;;;;;5029068;28;20445;-37
2023/01/15 12:58:42;;;;;;;1.73;0.73;;;3.80;1.00;;;;;;5036677;28;20539;-37
2023/01/15 13:01:11;;;;;;;2.30;0.83;;;3.80;1.00;;;;;;5036197;28;20413;-37
2023/01/15 13:03:55;;;;;;;1.97;1.00;;;3.80;1.00;;;;;;5035859;28;20406;-37
2023/01/15 13:06:25;;;;;;;1.67;0.70;;;3.80;1.00;;;;;;5034556;28;20588;-36
2023/01/15 13:09:02;;;;;;;1.30;0.83;;;3.80;1.00;;;;;;5034551;28;20413;-37
2023/01/15 13:11:28;;;;;;;1.60;0.63;;;3.90;99.90;;;;;;5034229;28;20431;-37
2023/01/15 13:13:56;;;;;;;1.40;0.90;;;3.90;99.90;;;;;;5036134;28;20508;-37
2023/01/15 13:16:49;;;;;;;2.70;0.80;;;4.00;99.90;;;;;;5036977;28;20233;-37
2023/01/15 13:19:24;;;;;;;1.27;1.00;;;4.00;1.00;;;;;;5036508;28;20498;-37
2023/01/15 13:21:51;;;;;;;1.50;1.20;;;4.20;99.90;;;;;;5035139;28;20400;-47
2023/01/15 13:24:40;;;;;;;1.20;0.70;;;4.20;99.90;;;;;;5036119;28;20417;-37
2023/01/15 13:27:30;;;;;;;1.10;0.70;;;4.20;99.90;;;;;;5036929;28;20424;-37
2023/01/15 13:30:14;;;;;;;4.00;1.07;;;4.20;99.90;;;;;;5035305;28;20417;-37
2023/01/15 13:32:47;;;;;;;1.23;0.80;;;4.20;99.90;;;;;;5034039;28;20417;-37
2023/01/15 13:35:29;;;;;;;1.97;1.03;;;4.20;99.90;;;;;;5032771;28;20417;-38
2023/01/15 13:37:58;;;;;;;1.37;0.67;;;4.30;99.90;;;;;;5034227;28;20886;-37
2023/01/15 13:40:35;;;;;;;5.40;1.50;;;4.30;99.90;;;;;;5033702;28;20516;-38
2023/01/15 13:43:03;;;;;;;1.30;0.80;;;4.40;99.90;;;;;;5034690;28;20419;-37
2023/01/15 13:45:39;;;;;;;1.67;0.80;;;4.60;1.00;;;;;;5036115;28;20417;-37
2023/01/15 13:48:19;;;;;;;1.60;0.77;;;4.60;99.90;;;;;;5035268;28;20420;-38
2023/01/15 13:50:58;;;;;;;1.40;0.80;;;4.80;66.70;;;;;;5035054;28;20421;-38
2023/01/15 13:53:35;;;;;;;1.00;0.60;;;5.20;1.00;;;;;;5036592;28;20826;-37
2023/01/15 13:56:04;;;;;;;1.67;0.70;;;6.00;1.00;;;;;;5018753;28;20472;-37
2023/01/15 13:58:32;;;;;;;2.83;0.73;;;6.70;1.00;;;;;;5037159;28;20420;-37
2023/01/15 14:01:16;;;;;;;2.97;0.80;;;7.40;99.90;;;;;;5035011;28;20421;-38
2023/01/15 14:04:01;;;;;;;2.50;0.90;;;8.20;99.90;;;;;;5035475;28;20523;-37
2023/01/15 14:06:43;;;;;;;1.77;1.00;;;9.50;99.90;;;;;;5034491;28;20433;-37
2023/01/15 14:09:23;;;;;;;3.53;1.00;;;9.70;99.90;;;;;;5035632;28;20833;-37
2023/01/15 14:12:14;;;;;;;3.00;1.00;;;10.20;99.90;;;;;;5036241;28;20432;-39
2023/01/15 14:15:01;;;;;;;1.97;1.20;;;11.00;24.70;;;;;;5035296;28;20467;-38
2023/01/15 14:17:29;;;;;;;1.33;0.87;;;11.10;1.00;;;;;;5034374;28;20500;-38